Time;durP1;ratioP1;P1;durP2;ratioP2;P2;SDS_P1;SDS_P2;PMS_P1;PMS_P2;Temp;Humidity;BMP_temperature;BMP_pressure;BME280_temperature;BME280_humidity;BME280_pressure;Samples;Min_cycle;Max_cycle;Signal;HPM_P1;HPM_P2
2023/04/21 00:02:16;;;;;;;19.85;11.13;;;9.20;99.90;;;;;;5002167;28;20045;-85
2023/04/21 00:04:51;;;;;;;20.83;10.02;;;9.20;99.90;;;;;;4985840;28;20045;-86
2023/04/21 00:09:49;;;;;;;20.52;11.05;;;9.10;99.90;;;;;;5022746;28;20095;-71
2023/04/21 00:12:15;;;;;;;19.87;11.20;;;9.10;99.90;;;;;;5003669;28;20041;-70
2023/04/21 00:14:41;;;;;;;19.23;10.27;;;9.10;99.90;;;;;;5005571;28;20041;-70
2023/04/21 00:17:06;;;;;;;25.63;10.33;;;9.10;99.90;;;;;;5005641;28;20092;-71
2023/04/21 00:19:34;;;;;;;20.33;10.67;;;9.10;99.90;;;;;;5001295;28;20091;-70
2023/04/21 00:22:00;;;;;;;20.45;10.75;;;9.10;99.90;;;;;;5000580;28;20174;-70
2023/04/21 00:24:25;;;;;;;17.95;10.85;;;9.10;99.90;;;;;;5002919;28;20049;-70
2023/04/21 00:26:51;;;;;;;22.43;11.33;;;9.00;99.90;;;;;;5000458;28;20487;-70
2023/04/21 00:29:17;;;;;;;23.53;11.10;;;9.10;99.90;;;;;;5000592;28;20056;-71
2023/04/21 00:31:42;;;;;;;21.63;11.00;;;9.10;99.90;;;;;;5001856;28;20049;-70
2023/04/21 00:34:08;;;;;;;17.87;10.10;;;9.10;99.90;;;;;;5004623;28;20076;-71
2023/04/21 00:36:34;;;;;;;16.88;10.50;;;9.00;99.90;;;;;;4980604;28;20083;-70
2023/04/21 00:39:00;;;;;;;20.70;11.07;;;9.00;99.90;;;;;;4996992;28;20037;-71
2023/04/21 00:41:27;;;;;;;18.77;9.80;;;9.00;99.90;;;;;;5001845;28;20042;-70
2023/04/21 00:44:19;;;;;;;21.17;10.52;;;9.00;99.90;;;;;;5015320;28;20084;-70
2023/04/21 00:46:45;;;;;;;23.00;11.20;;;9.00;99.90;;;;;;5000536;28;20135;-70
2023/04/21 00:49:12;;;;;;;19.85;11.43;;;9.00;99.90;;;;;;5005719;28;20438;-70
2023/04/21 00:51:38;;;;;;;;;;;8.90;99.90;;;;;;4975098;28;20064;-70
2023/04/21 00:54:05;;;;;;;20.25;9.75;;;8.90;99.90;;;;;;4997039;28;20312;-70
2023/04/21 00:56:32;;;;;;;19.60;10.18;;;8.80;99.90;;;;;;5022298;28;20038;-70
2023/04/21 00:58:59;;;;;;;16.30;9.27;;;8.80;99.90;;;;;;5001840;28;20112;-70
2023/04/21 01:01:26;;;;;;;19.77;9.75;;;8.70;99.90;;;;;;4984877;28;20149;-70
2023/04/21 01:03:52;;;;;;;16.60;9.48;;;8.70;99.90;;;;;;4998711;28;20657;-70
2023/04/21 01:06:18;;;;;;;18.85;10.07;;;8.80;99.90;;;;;;5003323;28;20088;-70
2023/04/21 01:08:51;;;;;;;20.15;10.20;;;8.70;99.90;;;;;;5004376;28;20160;-70
2023/04/21 01:11:16;;;;;;;18.70;9.02;;;8.60;99.90;;;;;;4997966;28;20048;-70
2023/04/21 01:13:44;;;;;;;18.17;9.43;;;8.60;99.90;;;;;;4999682;28;20050;-71
2023/04/21 01:16:16;;;;;;;16.47;9.90;;;8.60;99.90;;;;;;5022230;28;20537;-70
2023/04/21 01:18:41;;;;;;;18.88;9.63;;;8.60;99.90;;;;;;5001063;28;20494;-70
2023/04/21 01:21:07;;;;;;;18.07;8.67;;;8.50;99.90;;;;;;5018170;28;20037;-70
2023/04/21 01:23:33;;;;;;;16.80;9.57;;;8.50;99.90;;;;;;5022274;28;20490;-70
2023/04/21 01:25:58;;;;;;;16.17;9.87;;;8.50;99.90;;;;;;5006447;28;20537;-70
2023/04/21 01:28:25;;;;;;;19.47;9.40;;;8.40;99.90;;;;;;5005231;28;20052;-70
2023/04/21 01:30:51;;;;;;;16.45;8.70;;;8.40;99.90;;;;;;4996388;28;20420;-69
2023/04/21 01:33:18;;;;;;;19.50;8.95;;;8.40;99.90;;;;;;5000212;28;20128;-70
2023/04/21 01:35:44;;;;;;;16.20;8.77;;;8.40;99.90;;;;;;4999374;28;20049;-70
2023/04/21 01:38:10;;;;;;;15.23;9.00;;;8.40;99.90;;;;;;5007052;28;20504;-70
2023/04/21 01:40:36;;;;;;;21.30;8.88;;;8.40;99.90;;;;;;5004684;28;20041;-70
2023/04/21 01:43:04;;;;;;;16.25;9.25;;;8.40;99.90;;;;;;4996400;28;20041;-70
2023/04/21 01:45:31;;;;;;;18.92;9.25;;;8.30;99.90;;;;;;5003366;28;20077;-70
2023/04/21 01:47:56;;;;;;;21.42;9.80;;;8.30;99.90;;;;;;4992362;28;20102;-70
2023/04/21 01:50:22;;;;;;;22.37;9.50;;;8.30;99.90;;;;;;5010869;28;20049;-70
2023/04/21 01:52:47;;;;;;;14.43;9.13;;;8.30;99.90;;;;;;4993416;28;20056;-70
2023/04/21 01:55:13;;;;;;;21.43;9.33;;;8.30;99.90;;;;;;5002527;28;20124;-70
2023/04/21 01:57:39;;;;;;;19.33;9.18;;;8.30;99.90;;;;;;5005271;28;20265;-70
2023/04/21 02:00:08;;;;;;;24.20;9.63;;;8.30;99.90;;;;;;4989786;28;20037;-70
2023/04/21 02:02:37;;;;;;;16.52;9.57;;;8.20;99.90;;;;;;4996195;28;20054;-70
2023/04/21 02:05:03;;;;;;;16.10;9.20;;;8.20;99.90;;;;;;5002273;28;20060;-70
2023/04/21 02:07:28;;;;;;;20.60;9.90;;;8.20;99.90;;;;;;5004650;28;20124;-70
2023/04/21 02:09:54;;;;;;;20.87;9.97;;;8.20;99.90;;;;;;5007937;28;20045;-70
2023/04/21 02:12:20;;;;;;;23.50;8.93;;;8.20;99.90;;;;;;5004700;28;20063;-70
2023/04/21 02:14:47;;;;;;;17.35;9.68;;;8.20;99.90;;;;;;4991530;28;20159;-70
2023/04/21 02:17:20;;;;;;;23.17;9.10;;;8.20;99.90;;;;;;4988382;28;20045;-78
2023/04/21 02:19:46;;;;;;;15.63;9.23;;;8.10;99.90;;;;;;5003895;28;20053;-69
2023/04/21 02:22:12;;;;;;;19.52;9.50;;;8.20;99.90;;;;;;5004060;28;20542;-74
2023/04/21 02:24:38;;;;;;;16.10;10.17;;;8.10;99.90;;;;;;5016814;28;20048;-69
2023/04/21 02:27:04;;;;;;;16.00;9.50;;;8.10;99.90;;;;;;5002463;28;20132;-70
2023/04/21 02:29:30;;;;;;;14.77;8.93;;;8.10;99.90;;;;;;5025454;28;20195;-69
2023/04/21 02:31:55;;;;;;;17.13;8.80;;;8.10;99.90;;;;;;4998225;28;20037;-69
2023/04/21 02:34:21;;;;;;;16.63;9.00;;;8.10;99.90;;;;;;5005039;28;20304;-70
2023/04/21 02:36:46;;;;;;;19.30;9.77;;;8.10;99.90;;;;;;4997907;28;20045;-70
2023/04/21 02:39:12;;;;;;;16.10;8.70;;;8.10;99.90;;;;;;5046657;22;20052;-69
2023/04/21 02:41:38;;;;;;;23.20;8.67;;;8.10;99.90;;;;;;5027275;28;20526;-70
2023/04/21 02:44:05;;;;;;;15.52;9.07;;;8.00;99.90;;;;;;5032963;28;20040;-69
2023/04/21 02:46:30;;;;;;;14.05;8.52;;;8.10;99.90;;;;;;5037042;28;20089;-69
2023/04/21 02:48:56;;;;;;;16.87;8.77;;;8.00;99.90;;;;;;5062849;28;20041;-69
2023/04/21 02:51:22;;;;;;;21.80;9.80;;;8.10;99.90;;;;;;5057222;28;20077;-71
2023/04/21 02:53:47;;;;;;;16.97;8.43;;;8.10;99.90;;;;;;5042655;28;20048;-69
2023/04/21 02:56:13;;;;;;;16.17;8.87;;;8.10;99.90;;;;;;5028370;28;20444;-69
2023/04/21 02:58:39;;;;;;;20.87;9.27;;;8.10;99.90;;;;;;5059523;28;20401;-69
2023/04/21 03:01:05;;;;;;;13.70;8.27;;;8.10;99.90;;;;;;5031261;28;20119;-70
2023/04/21 03:03:31;;;;;;;17.90;8.80;;;8.20;99.90;;;;;;5038156;28;20052;-69
2023/04/21 03:05:58;;;;;;;19.70;9.02;;;8.20;99.90;;;;;;5050903;28;20578;-69
2023/04/21 03:08:24;;;;;;;;;;;8.20;99.90;;;;;;5037879;28;20048;-69
2023/04/21 03:10:49;;;;;;;16.10;8.18;;;8.20;99.90;;;;;;5039795;28;19916;-69
2023/04/21 03:13:16;;;;;;;15.30;8.60;;;8.20;99.90;;;;;;5032260;28;20095;-70
2023/04/21 03:15:41;;;;;;;19.45;8.60;;;8.20;99.90;;;;;;5060227;28;20130;-69
2023/04/21 03:18:07;;;;;;;15.37;8.77;;;8.20;99.90;;;;;;5037032;28;20124;-70
2023/04/21 03:20:32;;;;;;;17.43;9.40;;;8.20;99.90;;;;;;5040776;28;20048;-70
2023/04/21 03:22:58;;;;;;;15.97;9.13;;;8.30;99.90;;;;;;5052243;28;20048;-71
2023/04/21 03:25:26;;;;;;;14.50;8.97;;;8.20;99.90;;;;;;5039588;28;20036;-70
2023/04/21 03:27:52;;;;;;;13.88;8.23;;;8.30;99.90;;;;;;5017997;28;20105;-69
2023/04/21 03:30:18;;;;;;;17.98;8.65;;;8.20;99.90;;;;;;5036648;28;20041;-69
2023/04/21 03:32:44;;;;;;;18.20;8.77;;;8.20;99.90;;;;;;5054368;28;20137;-69
2023/04/21 03:35:09;;;;;;;17.90;9.60;;;8.20;99.90;;;;;;5024073;28;20037;-69
2023/04/21 03:37:35;;;;;;;15.60;7.63;;;8.20;99.90;;;;;;5053549;28;20063;-69
2023/04/21 03:40:01;;;;;;;19.13;8.33;;;8.30;99.90;;;;;;5053940;28;20048;-70
2023/04/21 03:42:28;;;;;;;16.37;8.70;;;8.20;99.90;;;;;;5039437;28;20168;-69
2023/04/21 03:44:54;;;;;;;16.42;8.20;;;8.20;99.90;;;;;;5036635;28;20053;-69
2023/04/21 03:47:19;;;;;;;17.67;7.73;;;8.20;99.90;;;;;;5048942;28;20047;-70
2023/04/21 03:49:45;;;;;;;14.87;7.83;;;8.20;99.90;;;;;;5047972;28;20047;-70
2023/04/21 03:52:11;;;;;;;15.07;7.20;;;8.30;99.90;;;;;;5053651;28;20114;-69
2023/04/21 03:54:36;;;;;;;15.73;8.80;;;8.30;99.90;;;;;;5042423;28;20062;-70
2023/04/21 03:57:02;;;;;;;13.07;7.73;;;8.40;99.90;;;;;;5040620;28;20640;-69
2023/04/21 03:59:27;;;;;;;17.30;9.23;;;8.40;99.90;;;;;;5036087;28;20609;-70
2023/04/21 04:01:53;;;;;;;19.57;8.70;;;8.40;99.90;;;;;;5017511;28;20124;-70
2023/04/21 04:04:19;;;;;;;19.33;8.67;;;8.40;99.90;;;;;;5055511;28;20032;-70
2023/04/21 04:06:44;;;;;;;16.23;7.63;;;8.40;99.90;;;;;;5043556;28;20047;-69
2023/04/21 04:09:12;;;;;;;23.37;7.90;;;8.30;99.90;;;;;;5059845;28;20079;-69
2023/04/21 04:11:37;;;;;;;15.85;7.63;;;8.40;99.90;;;;;;5058081;28;20197;-69
2023/04/21 04:14:06;;;;;;;18.17;8.33;;;8.40;99.90;;;;;;5058386;28;20045;-69
2023/04/21 04:16:33;;;;;;;16.35;8.35;;;8.40;99.90;;;;;;5037332;28;20044;-70
2023/04/21 04:18:59;;;;;;;15.30;8.43;;;8.40;99.90;;;;;;5037538;28;20048;-68
2023/04/21 04:21:26;;;;;;;15.03;8.53;;;8.40;99.90;;;;;;5040197;28;20040;-69
2023/04/21 04:23:52;;;;;;;15.25;8.98;;;8.40;99.90;;;;;;5051794;28;20113;-68
2023/04/21 04:26:18;;;;;;;15.33;8.50;;;8.40;99.90;;;;;;5054939;28;20142;-68
2023/04/21 04:28:44;;;;;;;14.88;8.43;;;8.40;99.90;;;;;;5042122;28;20278;-69
2023/04/21 04:31:12;;;;;;;17.08;7.95;;;8.40;99.90;;;;;;5035793;28;20044;-69
2023/04/21 04:33:41;;;;;;;16.52;8.13;;;8.40;99.90;;;;;;5052004;28;20045;-68
2023/04/21 04:36:07;;;;;;;15.00;8.05;;;8.40;99.90;;;;;;5055621;28;20071;-68
2023/04/21 04:38:36;;;;;;;15.95;8.48;;;8.50;99.90;;;;;;5026757;28;20037;-69
2023/04/21 04:41:02;;;;;;;18.52;8.10;;;8.50;99.90;;;;;;5052949;28;20118;-68
2023/04/21 04:43:28;;;;;;;14.25;8.00;;;8.40;99.90;;;;;;5051011;28;20048;-68
2023/04/21 04:45:54;;;;;;;15.77;8.70;;;8.60;99.90;;;;;;5035655;28;20429;-68
2023/04/21 04:48:19;;;;;;;24.23;9.03;;;8.60;99.90;;;;;;5034960;28;20305;-69
2023/04/21 04:50:45;;;;;;;16.67;7.77;;;8.60;99.90;;;;;;5058622;28;20044;-69
2023/04/21 04:53:11;;;;;;;14.87;7.70;;;8.60;99.90;;;;;;5039844;28;20480;-69
2023/04/21 04:55:36;;;;;;;18.03;7.27;;;8.70;99.90;;;;;;5041837;28;20040;-70
2023/04/21 04:58:02;;;;;;;15.18;7.85;;;8.70;99.90;;;;;;5037549;28;20048;-68
2023/04/21 05:00:28;;;;;;;18.50;8.10;;;8.60;99.90;;;;;;5031919;28;20055;-69
2023/04/21 05:02:54;;;;;;;14.03;7.70;;;8.70;99.90;;;;;;5038507;28;20040;-69
2023/04/21 05:05:20;;;;;;;18.08;7.72;;;8.70;99.90;;;;;;5036351;28;20076;-69
2023/04/21 05:07:46;;;;;;;13.35;7.03;;;8.70;99.90;;;;;;5043601;28;20112;-69
2023/04/21 05:10:12;;;;;;;13.13;7.40;;;8.80;99.90;;;;;;5060147;28;20453;-69
2023/04/21 05:12:38;;;;;;;16.53;8.77;;;8.80;99.90;;;;;;5056757;28;20389;-69
2023/04/21 05:15:07;;;;;;;13.47;7.50;;;8.80;99.90;;;;;;5041059;28;20806;-68
2023/04/21 05:17:38;;;;;;;17.15;7.53;;;8.80;99.90;;;;;;5044304;28;20041;-69
2023/04/21 05:20:05;;;;;;;14.15;7.22;;;8.80;99.90;;;;;;5063362;28;20033;-68
2023/04/21 05:22:31;;;;;;;13.73;7.13;;;8.80;99.90;;;;;;5039441;28;20509;-69
2023/04/21 05:24:56;;;;;;;13.37;7.13;;;8.80;99.90;;;;;;5045117;28;20036;-69
2023/04/21 05:27:22;;;;;;;16.27;7.17;;;8.80;99.90;;;;;;5054946;28;20106;-69
2023/04/21 05:29:47;;;;;;;14.50;7.10;;;8.80;99.90;;;;;;5057911;28;20060;-69
2023/04/21 05:32:14;;;;;;;13.77;7.73;;;8.80;99.90;;;;;;5039272;28;20148;-68
2023/04/21 05:34:39;;;;;;;13.15;7.75;;;8.80;99.90;;;;;;5014075;28;20041;-69
2023/04/21 05:37:05;;;;;;;13.77;6.87;;;8.90;99.90;;;;;;5040271;28;20098;-69
2023/04/21 05:39:31;;;;;;;12.53;7.30;;;8.90;99.90;;;;;;5043922;28;20036;-69
2023/04/21 05:41:57;;;;;;;14.87;7.17;;;8.90;99.90;;;;;;5040079;28;20324;-69
2023/04/21 05:44:24;;;;;;;18.58;7.75;;;8.90;99.90;;;;;;5026903;28;20033;-70
2023/04/21 05:46:49;;;;;;;15.73;6.75;;;9.00;99.90;;;;;;5045349;28;20503;-69
2023/04/21 05:49:15;;;;;;;13.77;6.77;;;9.00;99.90;;;;;;5043367;28;20128;-71
2023/04/21 05:51:41;;;;;;;13.07;7.37;;;9.00;99.90;;;;;;5030525;28;20097;-68
2023/04/21 05:54:06;;;;;;;21.20;7.60;;;9.00;99.90;;;;;;5039814;28;20066;-72
2023/04/21 05:56:32;;;;;;;20.17;7.73;;;9.00;99.90;;;;;;5044479;28;20508;-69
2023/04/21 05:58:58;;;;;;;19.47;7.90;;;9.10;99.90;;;;;;5061097;28;20086;-74
2023/04/21 06:01:23;;;;;;;12.57;6.83;;;9.10;99.90;;;;;;5031859;28;20032;-71
2023/04/21 06:03:49;;;;;;;11.17;6.80;;;9.10;99.90;;;;;;5058697;28;20526;-75
2023/04/21 06:06:15;;;;;;;15.83;7.00;;;9.10;99.90;;;;;;5043554;28;20110;-72
2023/04/21 06:08:40;;;;;;;13.27;7.22;;;9.20;99.90;;;;;;5041728;28;20037;-74
2023/04/21 06:11:06;;;;;;;13.70;7.18;;;9.20;99.90;;;;;;5034772;28;20053;-76
2023/04/21 06:13:32;;;;;;;11.53;6.90;;;9.30;99.90;;;;;;5040659;28;20044;-68
2023/04/21 06:15:57;;;;;;;14.60;6.97;;;9.20;99.90;;;;;;5062550;28;20372;-68
2023/04/21 06:18:26;;;;;;;9.90;6.80;;;9.30;99.90;;;;;;5059408;28;20130;-68
2023/04/21 06:20:52;;;;;;;16.63;6.85;;;9.40;99.90;;;;;;5051630;28;20037;-68
2023/04/21 06:23:18;;;;;;;;;;;9.40;99.90;;;;;;5059576;28;20094;-68
2023/04/21 06:25:44;;;;;;;15.52;6.78;;;9.40;99.90;;;;;;5038153;28;19920;-68
2023/04/21 06:28:10;;;;;;;16.50;6.30;;;9.50;99.90;;;;;;5057964;28;20087;-68
2023/04/21 06:30:35;;;;;;;15.30;7.07;;;9.50;99.90;;;;;;5034694;28;20248;-68
2023/04/21 06:33:01;;;;;;;18.80;7.13;;;9.60;99.90;;;;;;5036869;28;20242;-68
2023/04/21 06:35:26;;;;;;;10.87;6.37;;;9.60;99.90;;;;;;5057388;28;20089;-69
2023/04/21 06:37:52;;;;;;;13.17;6.77;;;9.60;99.90;;;;;;5031870;28;20378;-69
2023/04/21 06:40:18;;;;;;;16.43;7.07;;;9.70;99.90;;;;;;5053492;28;20094;-69
2023/04/21 06:42:43;;;;;;;14.77;7.43;;;9.70;99.90;;;;;;5062265;28;20159;-68
2023/04/21 06:45:09;;;;;;;15.07;7.70;;;9.70;99.90;;;;;;5033586;28;20426;-68
2023/04/21 06:47:38;;;;;;;17.88;7.55;;;9.80;99.90;;;;;;5036449;28;20082;-69
2023/04/21 06:50:04;;;;;;;16.33;7.15;;;9.80;99.90;;;;;;5062162;28;20071;-68
2023/04/21 06:52:30;;;;;;;16.45;7.28;;;9.80;99.90;;;;;;5056389;28;20336;-69
2023/04/21 06:54:56;;;;;;;14.73;7.30;;;9.90;99.90;;;;;;5063745;28;20103;-69
2023/04/21 06:57:22;;;;;;;10.63;7.27;;;10.00;99.90;;;;;;5057316;28;20599;-69
2023/04/21 06:59:47;;;;;;;15.10;7.70;;;10.00;99.90;;;;;;5043790;28;20202;-68
2023/04/21 07:02:13;;;;;;;11.80;6.60;;;10.00;99.90;;;;;;5060674;28;20994;-69
2023/04/21 07:04:39;;;;;;;13.37;6.10;;;10.20;99.90;;;;;;5044091;28;20281;-69
2023/04/21 07:07:05;;;;;;;12.03;6.67;;;10.20;99.90;;;;;;5034681;28;20079;-69
2023/04/21 07:09:32;;;;;;;18.88;8.32;;;10.30;99.90;;;;;;5043631;28;20152;-69
2023/04/21 07:11:59;;;;;;;15.07;6.88;;;10.40;99.90;;;;;;5060986;28;20536;-69
2023/04/21 07:14:25;;;;;;;12.52;6.60;;;10.50;99.90;;;;;;5038885;28;20112;-68
2023/04/21 07:16:51;;;;;;;14.37;7.07;;;10.60;99.90;;;;;;5026932;28;20055;-69
2023/04/21 07:19:16;;;;;;;20.70;6.53;;;10.60;99.90;;;;;;5060248;28;20429;-68
2023/04/21 07:21:42;;;;;;;18.10;6.57;;;10.70;99.90;;;;;;5038558;28;20493;-68
2023/04/21 07:24:08;;;;;;;16.50;7.47;;;10.80;99.90;;;;;;5061378;28;20064;-68
2023/04/21 07:26:33;;;;;;;15.07;7.03;;;10.90;99.90;;;;;;5058118;28;20922;-68
2023/04/21 07:28:59;;;;;;;15.33;7.43;;;10.90;99.90;;;;;;5038917;28;20045;-68
2023/04/21 07:31:25;;;;;;;15.45;6.55;;;11.00;99.90;;;;;;5055429;28;20446;-68
2023/04/21 07:33:51;;;;;;;10.93;6.60;;;11.10;99.90;;;;;;5042218;28;20064;-69
2023/04/21 07:36:17;;;;;;;16.08;7.40;;;11.10;99.90;;;;;;5058016;28;20681;-69
2023/04/21 07:38:43;;;;;;;12.15;6.85;;;11.20;99.90;;;;;;5050380;28;20409;-67
2023/04/21 07:41:12;;;;;;;14.45;7.38;;;11.30;99.90;;;;;;5054247;28;20036;-68
2023/04/21 07:43:41;;;;;;;10.70;6.40;;;11.30;99.90;;;;;;5060064;28;20072;-68
2023/04/21 07:46:06;;;;;;;15.68;7.38;;;11.40;99.90;;;;;;5058117;28;20119;-68
2023/04/21 07:48:32;;;;;;;13.07;6.83;;;11.40;99.90;;;;;;5056993;28;20565;-68
2023/04/21 07:50:59;;;;;;;12.87;7.00;;;11.50;99.90;;;;;;5056593;28;20353;-68
2023/04/21 07:53:25;;;;;;;10.30;6.82;;;11.50;99.90;;;;;;5039612;28;20362;-68
2023/04/21 07:55:51;;;;;;;;;;;11.70;99.90;;;;;;5043072;28;20040;-67
2023/04/21 07:58:17;;;;;;;12.35;6.28;;;11.80;99.90;;;;;;5036267;28;20651;-67
2023/04/21 08:00:42;;;;;;;18.43;6.70;;;11.80;99.90;;;;;;5065935;28;20064;-68
2023/04/21 08:03:08;;;;;;;12.30;7.40;;;12.00;99.90;;;;;;5043073;28;20194;-68
2023/04/21 08:05:34;;;;;;;14.00;7.57;;;12.10;99.90;;;;;;5060999;28;20518;-68
2023/04/21 08:08:00;;;;;;;10.90;6.15;;;12.20;99.90;;;;;;5040824;28;20063;-68
2023/04/21 08:10:26;;;;;;;14.43;7.55;;;12.30;99.90;;;;;;5062651;28;20050;-68
2023/04/21 08:12:52;;;;;;;12.52;6.88;;;12.40;99.90;;;;;;5038415;28;20562;-68
2023/04/21 08:15:18;;;;;;;15.90;7.45;;;12.50;99.90;;;;;;5062134;28;20044;-68
2023/04/21 08:17:44;;;;;;;11.27;6.82;;;12.50;99.90;;;;;;5059771;28;20044;-68
2023/04/21 08:20:10;;;;;;;;;;;12.60;99.90;;;;;;5059427;28;20041;-68
2023/04/21 08:22:36;;;;;;;13.63;6.40;;;12.60;99.90;;;;;;5049591;28;19917;-68
2023/04/21 08:25:03;;;;;;;14.00;7.80;;;12.60;99.90;;;;;;5047478;28;20139;-68
2023/04/21 08:27:29;;;;;;;10.77;6.47;;;12.70;99.90;;;;;;5061276;28;20551;-68
2023/04/21 08:29:55;;;;;;;14.80;6.53;;;12.80;99.90;;;;;;5068826;28;20143;-68
2023/04/21 08:32:25;;;;;;;14.75;7.13;;;12.90;99.90;;;;;;5044313;28;20541;-68
2023/04/21 08:34:51;;;;;;;10.60;5.88;;;13.10;99.90;;;;;;5058379;28;20079;-67
2023/04/21 08:37:18;;;;;;;12.27;6.15;;;13.10;99.90;;;;;;5066583;28;20037;-68
2023/04/21 08:42:31;;;;;;;13.17;6.07;;;13.30;99.90;;;;;;4989509;28;20071;-86
2023/04/21 08:45:13;;;;;;;;;;;13.50;99.90;;;;;;5017962;28;20321;-86
2023/04/21 08:47:42;;;;;;;13.05;6.57;;;13.50;99.90;;;;;;5014140;28;19925;-86
2023/04/21 08:50:26;;;;;;;14.98;6.85;;;13.70;99.90;;;;;;5013611;28;20055;-86
2023/04/21 08:53:05;;;;;;;13.27;7.30;;;13.80;99.90;;;;;;5030142;28;20121;-87
2023/04/21 08:55:32;;;;;;;12.23;6.57;;;13.80;99.90;;;;;;5014386;28;20072;-86
2023/04/21 08:58:01;;;;;;;13.38;6.60;;;14.00;99.90;;;;;;5018001;28;20056;-87
2023/04/21 09:00:30;;;;;;;10.85;5.80;;;14.10;99.90;;;;;;5016887;28;20029;-87
2023/04/21 09:03:01;;;;;;;13.02;6.97;;;14.20;99.90;;;;;;5013566;28;20131;-88
2023/04/21 09:05:32;;;;;;;16.17;6.20;;;14.30;99.90;;;;;;5016536;28;20056;-87
2023/04/21 09:08:36;;;;;;;9.98;5.60;;;14.40;99.90;;;;;;5014812;28;20088;-87
2023/04/21 09:11:02;;;;;;;12.15;5.45;;;14.50;99.90;;;;;;5012074;28;20041;-87
2023/04/21 09:13:35;;;;;;;13.70;6.40;;;14.50;99.90;;;;;;5012679;28;20037;-88
2023/04/21 09:16:17;;;;;;;11.07;6.22;;;14.60;99.90;;;;;;5012434;28;20041;-88
2023/04/21 09:18:46;;;;;;;11.68;6.18;;;14.50;99.90;;;;;;5012298;28;20041;-87
2023/04/21 09:21:17;;;;;;;13.45;5.85;;;14.50;99.90;;;;;;5013648;28;20049;-87
2023/04/21 09:23:45;;;;;;;13.80;5.85;;;14.60;99.90;;;;;;5033739;28;20523;-87
2023/04/21 09:26:12;;;;;;;11.32;6.70;;;14.60;99.90;;;;;;5031049;28;20182;-87
2023/04/21 09:28:45;;;;;;;12.75;5.95;;;14.70;99.90;;;;;;5025875;28;20048;-87
2023/04/21 09:31:18;;;;;;;13.55;6.38;;;14.80;99.90;;;;;;5016260;28;20903;-87
2023/04/21 09:34:00;;;;;;;14.93;6.35;;;14.80;99.90;;;;;;5046041;28;20045;-87
2023/04/21 09:36:28;;;;;;;10.82;5.78;;;15.00;99.90;;;;;;5010654;28;20147;-87
2023/04/21 09:38:53;;;;;;;12.18;5.85;;;15.20;99.90;;;;;;5013616;28;20051;-87
2023/04/21 09:41:20;;;;;;;12.07;6.45;;;15.20;99.90;;;;;;5014507;28;20041;-87
2023/04/21 09:43:47;;;;;;;12.43;6.00;;;15.30;99.90;;;;;;5034102;28;20131;-87
2023/04/21 09:46:17;;;;;;;9.70;5.60;;;15.30;99.90;;;;;;5010221;28;20041;-88
2023/04/21 09:48:45;;;;;;;12.30;6.03;;;15.40;99.90;;;;;;5033849;28;20049;-87
2023/04/21 09:51:12;;;;;;;9.38;5.80;;;15.40;99.90;;;;;;5029601;28;20426;-88
2023/04/21 09:53:43;;;;;;;12.23;6.22;;;15.60;99.90;;;;;;5009310;28;20041;-88
2023/04/21 09:56:13;;;;;;;11.18;5.68;;;15.70;99.90;;;;;;5029770;28;20493;-87
2023/04/21 09:58:46;;;;;;;13.70;6.25;;;15.80;99.90;;;;;;5031119;28;20071;-87
2023/04/21 10:01:13;;;;;;;11.43;6.05;;;16.00;99.90;;;;;;5027367;28;20067;-87
2023/04/21 10:03:40;;;;;;;14.48;6.95;;;16.10;99.90;;;;;;5043129;28;20115;-87
2023/04/21 10:06:27;;;;;;;11.88;6.15;;;16.10;99.90;;;;;;5012714;28;20460;-87
2023/04/21 10:08:56;;;;;;;13.15;6.30;;;16.20;99.90;;;;;;5033209;28;20056;-88
2023/04/21 10:11:45;;;;;;;12.88;6.05;;;16.30;99.90;;;;;;5016962;28;20405;-88
2023/04/21 10:14:10;;;;;;;11.70;6.22;;;16.30;99.90;;;;;;4996964;28;20065;-88
2023/04/21 10:16:44;;;;;;;10.38;5.60;;;16.40;99.90;;;;;;5032694;28;20098;-87
2023/04/21 10:19:38;;;;;;;8.70;5.72;;;16.40;99.90;;;;;;5032539;28;20144;-87
2023/04/21 10:22:11;;;;;;;14.18;5.88;;;16.50;99.90;;;;;;5048853;28;20041;-88
2023/04/21 10:24:47;;;;;;;12.73;6.15;;;16.60;99.90;;;;;;5052683;28;20120;-87
2023/04/21 10:27:39;;;;;;;12.38;6.20;;;16.70;99.90;;;;;;5015351;28;20047;-87
2023/04/21 10:30:33;;;;;;;11.73;5.93;;;16.70;99.90;;;;;;5053174;28;20389;-87
2023/04/21 10:33:03;;;;;;;10.52;6.05;;;16.80;99.90;;;;;;5054392;28;20045;-87
2023/04/21 10:36:04;;;;;;;13.38;6.15;;;16.80;99.90;;;;;;5020854;28;20052;-87
2023/04/21 10:38:57;;;;;;;9.60;5.40;;;16.90;99.90;;;;;;5032532;28;20108;-87
2023/04/21 10:41:30;;;;;;;13.18;5.82;;;17.10;99.90;;;;;;5035021;28;20052;-88
2023/04/21 10:44:10;;;;;;;14.00;5.57;;;17.30;99.90;;;;;;5055701;28;20105;-87
2023/04/21 10:46:46;;;;;;;11.13;6.03;;;17.40;99.90;;;;;;5064912;22;20059;-87
2023/04/21 10:49:29;;;;;;;12.93;6.40;;;17.60;99.90;;;;;;5071511;28;20124;-87
2023/04/21 10:52:04;;;;;;;11.45;6.00;;;17.70;99.90;;;;;;5059201;28;20087;-87
2023/04/21 10:54:46;;;;;;;13.27;5.80;;;17.80;99.90;;;;;;5068344;28;20117;-87
2023/04/21 10:57:20;;;;;;;10.15;5.70;;;17.90;99.90;;;;;;5075952;28;20034;-86
2023/04/21 10:59:59;;;;;;;10.73;5.80;;;18.00;99.90;;;;;;5057132;28;20814;-87
2023/04/21 11:02:35;;;;;;;12.50;6.50;;;18.10;99.90;;;;;;5079817;28;20066;-87
2023/04/21 11:05:05;;;;;;;10.90;6.32;;;18.10;99.90;;;;;;5061540;28;20093;-87
2023/04/21 11:07:33;;;;;;;12.40;6.97;;;18.10;99.90;;;;;;5047083;28;20135;-87
2023/04/21 11:10:14;;;;;;;11.90;5.82;;;18.20;99.90;;;;;;5063525;28;20043;-87
2023/04/21 11:12:40;;;;;;;13.52;6.05;;;18.20;99.90;;;;;;5083141;28;20032;-87
2023/04/21 11:15:14;;;;;;;13.15;5.55;;;18.30;99.90;;;;;;5060710;28;20082;-88
2023/04/21 11:17:42;;;;;;;12.48;5.95;;;18.40;99.90;;;;;;5082743;28;20100;-87
2023/04/21 11:20:47;;;;;;;8.32;5.38;;;18.60;99.90;;;;;;5063580;28;20036;-87
2023/04/21 11:24:00;;;;;;;10.65;5.43;;;18.70;99.90;;;;;;5050260;28;20051;-87
2023/04/21 11:26:33;;;;;;;8.90;5.50;;;18.60;99.90;;;;;;5081603;28;20048;-87
2023/04/21 11:29:23;;;;;;;12.20;6.32;;;18.70;99.90;;;;;;5075145;28;20764;-88
2023/04/21 11:31:52;;;;;;;9.02;5.45;;;18.60;99.90;;;;;;5063043;28;20449;-88
2023/04/21 11:34:23;;;;;;;10.65;6.28;;;18.70;99.90;;;;;;5058169;28;20129;-87
2023/04/21 11:39:23;;;;;;;11.82;5.72;;;18.70;99.90;;;;;;5014471;28;20053;-71
2023/04/21 11:41:50;;;;;;;12.57;5.82;;;18.70;99.90;;;;;;5024002;28;20403;-70
2023/04/21 11:44:39;;;;;;;10.98;5.40;;;18.70;99.90;;;;;;5000806;28;20041;-71
2023/04/21 11:47:16;;;;;;;11.80;6.22;;;18.60;99.90;;;;;;4994897;28;20048;-71
2023/04/21 11:49:56;;;;;;;9.95;5.80;;;18.60;99.90;;;;;;5019395;28;20433;-71
2023/04/21 11:52:40;;;;;;;8.68;5.57;;;18.60;99.90;;;;;;5020350;28;20084;-71
2023/04/21 11:55:14;;;;;;;10.80;5.75;;;18.60;99.90;;;;;;5019199;28;20390;-71
2023/04/21 11:57:40;;;;;;;12.05;5.35;;;18.60;99.90;;;;;;5017636;28;20391;-70
2023/04/21 12:00:12;;;;;;;8.23;5.35;;;18.70;99.90;;;;;;5014620;28;20140;-71
2023/04/21 12:02:38;;;;;;;10.43;5.03;;;18.70;99.90;;;;;;5013705;28;20535;-71
2023/04/21 12:05:11;;;;;;;8.93;4.93;;;18.70;99.90;;;;;;5010493;28;20045;-71
2023/04/21 12:07:41;;;;;;;10.50;5.70;;;18.70;99.90;;;;;;5017396;28;20052;-71
2023/04/21 12:10:12;;;;;;;12.35;4.72;;;18.70;99.90;;;;;;5014340;28;20435;-71
2023/04/21 12:12:38;;;;;;;10.98;4.90;;;18.80;99.90;;;;;;5016578;28;20723;-71
2023/04/21 12:15:06;;;;;;;10.35;4.50;;;18.80;99.90;;;;;;5013707;28;20084;-71
2023/04/21 12:17:38;;;;;;;9.88;4.60;;;18.80;99.60;;;;;;5014248;28;20435;-71
2023/04/21 12:20:06;;;;;;;9.30;4.75;;;18.80;99.10;;;;;;5016221;28;20141;-71
2023/04/21 12:22:32;;;;;;;8.57;4.10;;;18.90;99.10;;;;;;5012525;28;20391;-71
2023/04/21 12:24:57;;;;;;;;;;;18.90;99.00;;;;;;5019109;28;20051;-71
2023/04/21 12:27:23;;;;;;;8.40;4.43;;;18.90;97.30;;;;;;5020079;28;20408;-71
2023/04/21 12:29:49;;;;;;;8.73;4.40;;;18.90;98.60;;;;;;5008651;28;20046;-71
2023/04/21 12:32:14;;;;;;;9.13;4.05;;;18.80;97.20;;;;;;4995455;28;20150;-71
2023/04/21 12:34:40;;;;;;;9.95;3.92;;;19.00;96.70;;;;;;5018339;28;20099;-71
2023/04/21 12:37:06;;;;;;;10.95;3.78;;;19.20;96.20;;;;;;5016325;28;20120;-71
2023/04/21 12:39:32;;;;;;;7.13;3.85;;;19.40;95.40;;;;;;5007208;28;20041;-71
2023/04/21 12:41:58;;;;;;;11.38;3.72;;;19.50;94.60;;;;;;5008508;28;20432;-71
2023/04/21 12:44:24;;;;;;;;;;;19.60;94.00;;;;;;5010270;28;20133;-71
2023/04/21 12:46:51;;;;;;;8.48;3.25;;;19.50;91.20;;;;;;4996959;28;19940;-71
2023/04/21 12:49:17;;;;;;;10.73;4.07;;;19.40;93.30;;;;;;5012069;28;20041;-71
2023/04/21 12:51:43;;;;;;;7.57;3.08;;;19.30;92.50;;;;;;5007073;28;20045;-71
2023/04/21 12:54:10;;;;;;;15.18;4.07;;;19.20;92.50;;;;;;5016091;28;20052;-71
2023/04/21 12:56:38;;;;;;;7.75;3.67;;;19.10;92.10;;;;;;5014485;28;20037;-71
2023/04/21 12:59:04;;;;;;;9.65;3.75;;;19.00;91.60;;;;;;5013092;28;20044;-71
2023/04/21 13:01:30;;;;;;;8.57;3.08;;;18.90;91.40;;;;;;5013627;28;20045;-71